Alexandra — WDD5677 — position and weather

sailwx.info

Track history (hours):
 
Tides and Currents Weather Stations Pressure Air Temp Water Temp Dewpoint Dewpoint Depression Visibility Wind Speed Wind Dir Waves Ship Positions

Alexandra

Owner: Weeks Marine, Inc., Cranford, NJ. More information available from US FCC via Universal Licensing System and Coast Guard Vessel Documentation Center.

Last reported at 2017-Feb-20 17:28 UTC. Time now 2017-Feb-20 18:28 UTC.
Position N 40°29' W 073°55'.

Length 37 m; draft 5 m.

Type: Tug. MMSI: 367161950.

Date/timePositionNaut miles runAvg speedWind from/ knotsBaromVisibWave heightAir tempDewpointWater temp
2017-Feb-20 17:28N 40°29' W 073°55'3 3.5
2017-Feb-20 16:33N 40°29' W 073°59'1 0.5
2017-Feb-20 14:33N 40°29' W 074°00'3 3.0
2017-Feb-20 13:27N 40°29' W 073°56'4 4.7
2017-Feb-20 12:33N 40°28' W 074°01'1 1.1
2017-Feb-20 11:33N 40°28' W 074°01'7 1.0
2017-Feb-20 04:31N 40°30' W 074°09'7 6.8
2017-Feb-20 03:28N 40°27' W 074°01'0 0.0
2017-Feb-20 02:33N 40°28' W 074°01'0 0.0
2017-Feb-20 01:33N 40°28' W 074°01'0 0.0
2017-Feb-20 00:33N 40°28' W 074°01'0 0.0
2017-Feb-19 23:32N 40°28' W 074°01'0 0.0
2017-Feb-19 22:33N 40°28' W 074°01'0 0.0
2017-Feb-19 21:28N 40°28' W 074°01'1 1.2
2017-Feb-19 20:33N 40°28' W 074°01'0 0.4
2017-Feb-19 19:33N 40°29' W 074°01'5 5.2
2017-Feb-19 18:33N 40°29' W 073°54'0 0.1
2017-Feb-19 17:30N 40°29' W 073°54'3 2.7
2017-Feb-19 16:28N 40°29' W 073°58'2 2.7
2017-Feb-19 15:33N 40°29' W 074°01'6 1.0
2017-Feb-19 09:20N 40°30' W 074°09'6 7.1
2017-Feb-19 08:33N 40°28' W 074°02'6 2.7
2017-Feb-19 06:19N 40°29' W 073°54'0 0.2
2017-Feb-19 05:33N 40°29' W 073°55'0 0.2
2017-Feb-19 04:33N 40°29' W 073°55'0 0.1
2017-Feb-19 03:18N 40°29' W 073°55'0 0.3
2017-Feb-19 02:31N 40°29' W 073°54'0 0.2
2017-Feb-19 01:33N 40°29' W 073°54'5 4.5
2017-Feb-19 00:33N 40°29' W 074°00'2 1.2
2017-Feb-18 23:16N 40°27' W 074°01'1 0.7
2017-Feb-18 22:33N 40°28' W 074°01'12 5.8
2017-Feb-18 20:32N 40°32' W 074°15'7 1.0
2017-Feb-18 13:32N 40°30' W 074°07'8 7.5
2017-Feb-18 12:31N 40°29' W 073°57'4 4.5
2017-Feb-18 11:33N 40°29' W 074°03'10 7.1
2017-Feb-18 10:06N 40°32' W 074°15'4 2.7
2017-Feb-18 08:33N 40°30' W 074°10'7 7.0
2017-Feb-18 07:33N 40°29' W 074°01'5 5.2
2017-Feb-18 06:32N 40°29' W 073°54'0 0.3
2017-Feb-18 05:33N 40°29' W 073°55'5 4.9
2017-Feb-18 04:33N 40°31' W 074°00'9 9.0
2017-Feb-18 03:34N 40°40' W 074°04'3 3.2
2017-Feb-18 02:33N 40°37' W 074°03'9 8.6
2017-Feb-18 01:28N 40°28' W 074°01'1 0.7
2017-Feb-18 00:33N 40°28' W 074°01'5 5.3
2017-Feb-17 23:33N 40°29' W 073°54'4 3.0
2017-Feb-17 22:19N 40°31' W 073°58'810.0
2017-Feb-17 21:33N 40°37' W 074°03'3 3.4
2017-Feb-17 20:33N 40°41' W 074°05'10 9.6
2017-Feb-17 19:33N 40°31' W 074°00'3 2.2
2017-Feb-17 18:09N 40°29' W 073°57'3 4.7
2017-Feb-17 17:29N 40°28' W 074°01'4 4.1
2017-Feb-17 16:32N 40°32' W 074°02'9 9.0
2017-Feb-17 15:33N 40°41' W 074°04'0 0.1
2017-Feb-17 14:33N 40°41' W 074°05'0 0.0
2017-Feb-17 13:33N 40°41' W 074°05'0 0.0
2017-Feb-17 12:33N 40°41' W 074°05'0 0.0
2017-Feb-17 11:33N 40°41' W 074°05'0 0.0
2017-Feb-17 10:33N 40°41' W 074°05'0 0.0
2017-Feb-17 09:33N 40°41' W 074°05'0 0.0
2017-Feb-17 08:33N 40°41' W 074°05'0 0.0
2017-Feb-17 07:33N 40°41' W 074°05'0 0.0
2017-Feb-17 06:33N 40°41' W 074°05'0 0.0
2017-Feb-17 05:33N 40°41' W 074°05'0 0.0
2017-Feb-17 04:33N 40°41' W 074°05'0 0.0
2017-Feb-17 03:33N 40°41' W 074°05'0 0.0
2017-Feb-17 02:33N 40°41' W 074°05'0 0.0
2017-Feb-17 01:33N 40°41' W 074°05'0 0.0
2017-Feb-17 00:33N 40°41' W 074°05'0 0.0
2017-Feb-16 23:33N 40°41' W 074°05'0 0.0
2017-Feb-16 22:33N 40°41' W 074°05'0 0.0
2017-Feb-16 21:33N 40°41' W 074°05'0 0.0
2017-Feb-16 20:33N 40°41' W 074°05'0 0.1
2017-Feb-16 19:33N 40°41' W 074°04'0 0.0
2017-Feb-16 18:33N 40°41' W 074°04'0 0.0
2017-Feb-16 17:33N 40°41' W 074°04'0 0.0
2017-Feb-16 16:33N 40°41' W 074°04'0 0.0
2017-Feb-16 15:33N 40°41' W 074°04'0 0.0
2017-Feb-16 14:33N 40°41' W 074°04'0 0.0
2017-Feb-16 13:33N 40°41' W 074°04'0 0.1
2017-Feb-16 12:33N 40°41' W 074°05'0 0.0
2017-Feb-16 11:33N 40°41' W 074°05'0 0.0
2017-Feb-16 10:33N 40°41' W 074°05'0 0.0
2017-Feb-16 09:33N 40°41' W 074°05'0 0.0
2017-Feb-16 08:33N 40°41' W 074°05'0 0.0
2017-Feb-16 07:33N 40°41' W 074°05'0 0.0
2017-Feb-16 06:33N 40°41' W 074°05'0 0.0
2017-Feb-16 05:33N 40°41' W 074°05'0 0.0
2017-Feb-16 04:33N 40°41' W 074°05'0 0.0
2017-Feb-16 03:33N 40°41' W 074°05'0 0.0
2017-Feb-16 02:33N 40°41' W 074°05'0 0.0
2017-Feb-16 01:33N 40°41' W 074°05'0 0.0
2017-Feb-16 00:33N 40°41' W 074°05'0 0.4
2017-Feb-15 23:33N 40°40' W 074°04'12 9.2
2017-Feb-15 22:16N 40°29' W 074°03'2 2.7
2017-Feb-15 21:33N 40°28' W 074°01'10 9.6
2017-Feb-15 20:33N 40°37' W 074°03'4 3.9
2017-Feb-15 19:33N 40°41' W 074°04'4 4.4
2017-Feb-15 18:33N 40°36' W 074°03'9 8.9
2017-Feb-15 17:32N 40°28' W 074°01'0 0.0
2017-Feb-15 16:33N 40°28' W 074°01'0 0.0
2017-Feb-15 15:33N 40°28' W 074°01'1 1.0
2017-Feb-15 14:27N 40°28' W 074°01'1 1.2
2017-Feb-15 13:33N 40°28' W 074°01'0 0.0
2017-Feb-15 12:33N 40°28' W 074°01'0 0.0
2017-Feb-15 11:33N 40°28' W 074°01'0 0.0
2017-Feb-15 10:33N 40°28' W 074°01'0 0.0
2017-Feb-15 09:33N 40°28' W 074°01'0 0.0
2017-Feb-15 08:33N 40°28' W 074°01'2 1.6
2017-Feb-15 07:33N 40°29' W 073°60'1 1.4
2017-Feb-15 06:33N 40°29' W 073°58'8 4.2
2017-Feb-15 04:33N 40°37' W 074°03'4 3.9
2017-Feb-15 03:33N 40°40' W 074°00'3 3.1
2017-Feb-15 02:33N 40°38' W 074°03'7 6.9
2017-Feb-15 01:33N 40°31' W 073°59'5 4.2
2017-Feb-15 00:28N 40°29' W 073°54'2 1.6
2017-Feb-14 23:16N 40°29' W 073°57'3 0.8
2017-Feb-14 19:07N 40°27' W 074°01'0 0.1
2017-Feb-14 18:32N 40°28' W 074°01'0 0.0
2017-Feb-14 17:20N 40°27' W 074°01'0 0.0
2017-Feb-14 16:31N 40°27' W 074°01'12 6.0
2017-Feb-14 14:30N 40°32' W 074°15'0 0.0
2017-Feb-14 13:26N 40°32' W 074°15'0 0.0
2017-Feb-14 12:30N 40°32' W 074°15'0 0.0
2017-Feb-14 11:25N 40°32' W 074°15'0 0.0
2017-Feb-14 10:29N 40°32' W 074°15'0 0.0
2017-Feb-14 09:28N 40°32' W 074°15'0 0.0
2017-Feb-14 08:12N 40°32' W 074°15'0 0.0
2017-Feb-14 07:30N 40°32' W 074°15'0 0.0
2017-Feb-14 06:33N 40°32' W 074°15'0 0.0
2017-Feb-14 05:33N 40°32' W 074°15'0 0.0
2017-Feb-14 04:32N 40°32' W 074°15'0 0.0
2017-Feb-14 03:32N 40°32' W 074°15'0 0.0
2017-Feb-14 02:33N 40°32' W 074°15'0 0.0
2017-Feb-14 01:31N 40°32' W 074°15'5 4.6
2017-Feb-14 00:32N 40°36' W 074°12'7 7.4
2017-Feb-13 23:33N 40°40' W 074°04'1 0.9
2017-Feb-13 22:33N 40°41' W 074°05'0 0.0
2017-Feb-13 21:33N 40°41' W 074°05'0 0.0
2017-Feb-13 20:33N 40°41' W 074°05'0 0.0
2017-Feb-13 19:33N 40°41' W 074°05'0 0.0
2017-Feb-13 18:33N 40°41' W 074°05'0 0.0
2017-Feb-13 17:33N 40°41' W 074°05'1 0.7
2017-Feb-13 16:33N 40°40' W 074°04'7 7.3
2017-Feb-13 15:33N 40°37' W 074°12'5 0.3
2017-Feb-12 22:23N 40°32' W 074°15'0 0.0
2017-Feb-12 21:22N 40°32' W 074°15'0 0.0
2017-Feb-12 20:33N 40°32' W 074°15'0 0.0
2017-Feb-12 19:33N 40°32' W 074°15'0 0.0
2017-Feb-12 18:20N 40°32' W 074°15'0 0.0
2017-Feb-12 17:29N 40°32' W 074°15'0 0.0
2017-Feb-12 16:05N 40°32' W 074°15'5 3.4
2017-Feb-12 14:32N 40°30' W 074°09'7 6.6
2017-Feb-12 13:30N 40°27' W 074°01'0 0.0
2017-Feb-12 12:29N 40°27' W 074°01'0 0.1
2017-Feb-12 11:33N 40°28' W 074°01'0 0.0
2017-Feb-12 10:29N 40°28' W 074°01'0 0.0
2017-Feb-12 09:29N 40°28' W 074°01'0 0.0
2017-Feb-12 08:33N 40°28' W 074°01'0 0.0
2017-Feb-12 07:33N 40°28' W 074°01'12 5.2
2017-Feb-12 05:15N 40°32' W 074°15'0 0.0
2017-Feb-12 04:12N 40°32' W 074°15'4 2.2
2017-Feb-12 02:26N 40°30' W 074°11'5 5.2
2017-Feb-12 01:30N 40°29' W 074°05'5 5.7
2017-Feb-12 00:33N 40°29' W 073°58'2 2.4
2017-Feb-11 23:32N 40°29' W 073°55'0 0.2
2017-Feb-11 22:33N 40°29' W 073°54'0 0.0
2017-Feb-11 21:24N 40°29' W 073°54'3 1.5
2017-Feb-11 19:32N 40°29' W 073°58'3 2.9
2017-Feb-11 18:33N 40°28' W 074°02'0 0.0
2017-Feb-11 17:33N 40°28' W 074°02'0 0.0
2017-Feb-11 16:33N 40°28' W 074°02'0 0.0
2017-Feb-11 15:33N 40°28' W 074°02'2 1.8
2017-Feb-11 14:33N 40°29' W 073°59'2 1.7
2017-Feb-11 13:31N 40°28' W 074°01'1 0.9
2017-Feb-11 12:29N 40°27' W 074°01'0 0.0
2017-Feb-11 11:33N 40°27' W 074°01'0 0.0
2017-Feb-11 10:33N 40°27' W 074°01'0 0.0
2017-Feb-11 09:31N 40°27' W 074°01'0 0.0
2017-Feb-11 08:31N 40°27' W 074°01'0 0.0
2017-Feb-11 07:33N 40°27' W 074°01'10 1.9
2017-Feb-11 02:30N 40°37' W 074°03'3 3.6
2017-Feb-11 01:33N 40°39' W 074°07'0 0.0
2017-Feb-11 00:27N 40°39' W 074°07'0 0.0
2017-Feb-10 23:32N 40°39' W 074°07'0 0.0
2017-Feb-10 22:33N 40°39' W 074°07'0 0.0
2017-Feb-10 21:33N 40°39' W 074°07'2 2.2
2017-Feb-10 20:33N 40°41' W 074°05'0 0.0
2017-Feb-10 19:33N 40°41' W 074°05'0 0.0
2017-Feb-10 18:33N 40°41' W 074°05'0 0.0
2017-Feb-10 17:33N 40°41' W 074°05'  
Track history (hours):
 
Tides and Currents Weather Stations Pressure Air Temp Water Temp Dewpoint Dewpoint Depression Visibility Wind Speed Wind Dir Waves Ship Positions

Alexandra

Owner: Weeks Marine, Inc., Cranford, NJ. More information available from US FCC via Universal Licensing System and Coast Guard Vessel Documentation Center.

Last reported at 2017-Feb-20 17:28 UTC. Time now 2017-Feb-20 18:28 UTC.
Position N 40°29' W 073°55'.

Length 37 m; draft 5 m.

Type: Tug. MMSI: 367161950.

Date/timePositionNaut miles runAvg speedWind from/ knotsBaromVisibWave heightAir tempDewpointWater temp
2017-Feb-20 17:28N 40°29' W 073°55'3 3.5
2017-Feb-20 16:33N 40°29' W 073°59'1 0.5
2017-Feb-20 14:33N 40°29' W 074°00'3 3.0
2017-Feb-20 13:27N 40°29' W 073°56'4 4.7
2017-Feb-20 12:33N 40°28' W 074°01'1 1.1
2017-Feb-20 11:33N 40°28' W 074°01'7 1.0
2017-Feb-20 04:31N 40°30' W 074°09'7 6.8
2017-Feb-20 03:28N 40°27' W 074°01'0 0.0
2017-Feb-20 02:33N 40°28' W 074°01'0 0.0
2017-Feb-20 01:33N 40°28' W 074°01'0 0.0
2017-Feb-20 00:33N 40°28' W 074°01'0 0.0
2017-Feb-19 23:32N 40°28' W 074°01'0 0.0
2017-Feb-19 22:33N 40°28' W 074°01'0 0.0
2017-Feb-19 21:28N 40°28' W 074°01'1 1.2
2017-Feb-19 20:33N 40°28' W 074°01'0 0.4
2017-Feb-19 19:33N 40°29' W 074°01'5 5.2
2017-Feb-19 18:33N 40°29' W 073°54'0 0.1
2017-Feb-19 17:30N 40°29' W 073°54'3 2.7
2017-Feb-19 16:28N 40°29' W 073°58'2 2.7
2017-Feb-19 15:33N 40°29' W 074°01'6 1.0
2017-Feb-19 09:20N 40°30' W 074°09'6 7.1
2017-Feb-19 08:33N 40°28' W 074°02'6 2.7
2017-Feb-19 06:19N 40°29' W 073°54'0 0.2
2017-Feb-19 05:33N 40°29' W 073°55'0 0.2
2017-Feb-19 04:33N 40°29' W 073°55'0 0.1
2017-Feb-19 03:18N 40°29' W 073°55'0 0.3
2017-Feb-19 02:31N 40°29' W 073°54'0 0.2
2017-Feb-19 01:33N 40°29' W 073°54'5 4.5
2017-Feb-19 00:33N 40°29' W 074°00'2 1.2
2017-Feb-18 23:16N 40°27' W 074°01'1 0.7
2017-Feb-18 22:33N 40°28' W 074°01'12 5.8
2017-Feb-18 20:32N 40°32' W 074°15'7 1.0
2017-Feb-18 13:32N 40°30' W 074°07'8 7.5
2017-Feb-18 12:31N 40°29' W 073°57'4 4.5
2017-Feb-18 11:33N 40°29' W 074°03'10 7.1
2017-Feb-18 10:06N 40°32' W 074°15'4 2.7
2017-Feb-18 08:33N 40°30' W 074°10'7 7.0
2017-Feb-18 07:33N 40°29' W 074°01'5 5.2
2017-Feb-18 06:32N 40°29' W 073°54'0 0.3
2017-Feb-18 05:33N 40°29' W 073°55'5 4.9
2017-Feb-18 04:33N 40°31' W 074°00'9 9.0
2017-Feb-18 03:34N 40°40' W 074°04'3 3.2
2017-Feb-18 02:33N 40°37' W 074°03'9 8.6
2017-Feb-18 01:28N 40°28' W 074°01'1 0.7
2017-Feb-18 00:33N 40°28' W 074°01'5 5.3
2017-Feb-17 23:33N 40°29' W 073°54'4 3.0
2017-Feb-17 22:19N 40°31' W 073°58'810.0
2017-Feb-17 21:33N 40°37' W 074°03'3 3.4
2017-Feb-17 20:33N 40°41' W 074°05'10 9.6
2017-Feb-17 19:33N 40°31' W 074°00'3 2.2
2017-Feb-17 18:09N 40°29' W 073°57'3 4.7
2017-Feb-17 17:29N 40°28' W 074°01'4 4.1
2017-Feb-17 16:32N 40°32' W 074°02'9 9.0
2017-Feb-17 15:33N 40°41' W 074°04'0 0.1
2017-Feb-17 14:33N 40°41' W 074°05'0 0.0
2017-Feb-17 13:33N 40°41' W 074°05'0 0.0
2017-Feb-17 12:33N 40°41' W 074°05'0 0.0
2017-Feb-17 11:33N 40°41' W 074°05'0 0.0
2017-Feb-17 10:33N 40°41' W 074°05'0 0.0
2017-Feb-17 09:33N 40°41' W 074°05'0 0.0
2017-Feb-17 08:33N 40°41' W 074°05'0 0.0
2017-Feb-17 07:33N 40°41' W 074°05'0 0.0
2017-Feb-17 06:33N 40°41' W 074°05'0 0.0
2017-Feb-17 05:33N 40°41' W 074°05'0 0.0
2017-Feb-17 04:33N 40°41' W 074°05'0 0.0
2017-Feb-17 03:33N 40°41' W 074°05'0 0.0
2017-Feb-17 02:33N 40°41' W 074°05'0 0.0
2017-Feb-17 01:33N 40°41' W 074°05'0 0.0
2017-Feb-17 00:33N 40°41' W 074°05'0 0.0
2017-Feb-16 23:33N 40°41' W 074°05'0 0.0
2017-Feb-16 22:33N 40°41' W 074°05'0 0.0
2017-Feb-16 21:33N 40°41' W 074°05'0 0.0
2017-Feb-16 20:33N 40°41' W 074°05'0 0.1
2017-Feb-16 19:33N 40°41' W 074°04'0 0.0
2017-Feb-16 18:33N 40°41' W 074°04'0 0.0
2017-Feb-16 17:33N 40°41' W 074°04'0 0.0
2017-Feb-16 16:33N 40°41' W 074°04'0 0.0
2017-Feb-16 15:33N 40°41' W 074°04'0 0.0
2017-Feb-16 14:33N 40°41' W 074°04'0 0.0
2017-Feb-16 13:33N 40°41' W 074°04'0 0.1
2017-Feb-16 12:33N 40°41' W 074°05'0 0.0
2017-Feb-16 11:33N 40°41' W 074°05'0 0.0
2017-Feb-16 10:33N 40°41' W 074°05'0 0.0
2017-Feb-16 09:33N 40°41' W 074°05'0 0.0
2017-Feb-16 08:33N 40°41' W 074°05'0 0.0
2017-Feb-16 07:33N 40°41' W 074°05'0 0.0
2017-Feb-16 06:33N 40°41' W 074°05'0 0.0
2017-Feb-16 05:33N 40°41' W 074°05'0 0.0
2017-Feb-16 04:33N 40°41' W 074°05'0 0.0
2017-Feb-16 03:33N 40°41' W 074°05'0 0.0
2017-Feb-16 02:33N 40°41' W 074°05'0 0.0
2017-Feb-16 01:33N 40°41' W 074°05'0 0.0
2017-Feb-16 00:33N 40°41' W 074°05'0 0.4
2017-Feb-15 23:33N 40°40' W 074°04'12 9.2
2017-Feb-15 22:16N 40°29' W 074°03'2 2.7
2017-Feb-15 21:33N 40°28' W 074°01'10 9.6
2017-Feb-15 20:33N 40°37' W 074°03'4 3.9
2017-Feb-15 19:33N 40°41' W 074°04'4 4.4
2017-Feb-15 18:33N 40°36' W 074°03'9 8.9
2017-Feb-15 17:32N 40°28' W 074°01'0 0.0
2017-Feb-15 16:33N 40°28' W 074°01'0 0.0
2017-Feb-15 15:33N 40°28' W 074°01'1 1.0
2017-Feb-15 14:27N 40°28' W 074°01'1 1.2
2017-Feb-15 13:33N 40°28' W 074°01'0 0.0
2017-Feb-15 12:33N 40°28' W 074°01'0 0.0
2017-Feb-15 11:33N 40°28' W 074°01'0 0.0
2017-Feb-15 10:33N 40°28' W 074°01'0 0.0
2017-Feb-15 09:33N 40°28' W 074°01'0 0.0
2017-Feb-15 08:33N 40°28' W 074°01'2 1.6
2017-Feb-15 07:33N 40°29' W 073°60'1 1.4
2017-Feb-15 06:33N 40°29' W 073°58'8 4.2
2017-Feb-15 04:33N 40°37' W 074°03'4 3.9
2017-Feb-15 03:33N 40°40' W 074°00'3 3.1
2017-Feb-15 02:33N 40°38' W 074°03'7 6.9
2017-Feb-15 01:33N 40°31' W 073°59'5 4.2
2017-Feb-15 00:28N 40°29' W 073°54'2 1.6
2017-Feb-14 23:16N 40°29' W 073°57'3 0.8
2017-Feb-14 19:07N 40°27' W 074°01'0 0.1
2017-Feb-14 18:32N 40°28' W 074°01'0 0.0
2017-Feb-14 17:20N 40°27' W 074°01'0 0.0
2017-Feb-14 16:31N 40°27' W 074°01'12 6.0
2017-Feb-14 14:30N 40°32' W 074°15'0 0.0
2017-Feb-14 13:26N 40°32' W 074°15'0 0.0
2017-Feb-14 12:30N 40°32' W 074°15'0 0.0
2017-Feb-14 11:25N 40°32' W 074°15'0 0.0
2017-Feb-14 10:29N 40°32' W 074°15'0 0.0
2017-Feb-14 09:28N 40°32' W 074°15'0 0.0
2017-Feb-14 08:12N 40°32' W 074°15'0 0.0
2017-Feb-14 07:30N 40°32' W 074°15'0 0.0
2017-Feb-14 06:33N 40°32' W 074°15'0 0.0
2017-Feb-14 05:33N 40°32' W 074°15'0 0.0
2017-Feb-14 04:32N 40°32' W 074°15'0 0.0
2017-Feb-14 03:32N 40°32' W 074°15'0 0.0
2017-Feb-14 02:33N 40°32' W 074°15'0 0.0
2017-Feb-14 01:31N 40°32' W 074°15'5 4.6
2017-Feb-14 00:32N 40°36' W 074°12'7 7.4
2017-Feb-13 23:33N 40°40' W 074°04'1 0.9
2017-Feb-13 22:33N 40°41' W 074°05'0 0.0
2017-Feb-13 21:33N 40°41' W 074°05'0 0.0
2017-Feb-13 20:33N 40°41' W 074°05'0 0.0
2017-Feb-13 19:33N 40°41' W 074°05'0 0.0
2017-Feb-13 18:33N 40°41' W 074°05'0 0.0
2017-Feb-13 17:33N 40°41' W 074°05'1 0.7
2017-Feb-13 16:33N 40°40' W 074°04'7 7.3
2017-Feb-13 15:33N 40°37' W 074°12'5 0.3
2017-Feb-12 22:23N 40°32' W 074°15'0 0.0
2017-Feb-12 21:22N 40°32' W 074°15'0 0.0
2017-Feb-12 20:33N 40°32' W 074°15'0 0.0
2017-Feb-12 19:33N 40°32' W 074°15'0 0.0
2017-Feb-12 18:20N 40°32' W 074°15'0 0.0
2017-Feb-12 17:29N 40°32' W 074°15'0 0.0
2017-Feb-12 16:05N 40°32' W 074°15'5 3.4
2017-Feb-12 14:32N 40°30' W 074°09'7 6.6
2017-Feb-12 13:30N 40°27' W 074°01'0 0.0
2017-Feb-12 12:29N 40°27' W 074°01'0 0.1
2017-Feb-12 11:33N 40°28' W 074°01'0 0.0
2017-Feb-12 10:29N 40°28' W 074°01'0 0.0
2017-Feb-12 09:29N 40°28' W 074°01'0 0.0
2017-Feb-12 08:33N 40°28' W 074°01'0 0.0
2017-Feb-12 07:33N 40°28' W 074°01'12 5.2
2017-Feb-12 05:15N 40°32' W 074°15'0 0.0
2017-Feb-12 04:12N 40°32' W 074°15'4 2.2
2017-Feb-12 02:26N 40°30' W 074°11'5 5.2
2017-Feb-12 01:30N 40°29' W 074°05'5 5.7
2017-Feb-12 00:33N 40°29' W 073°58'2 2.4
2017-Feb-11 23:32N 40°29' W 073°55'0 0.2
2017-Feb-11 22:33N 40°29' W 073°54'0 0.0
2017-Feb-11 21:24N 40°29' W 073°54'3 1.5
2017-Feb-11 19:32N 40°29' W 073°58'3 2.9
2017-Feb-11 18:33N 40°28' W 074°02'0 0.0
2017-Feb-11 17:33N 40°28' W 074°02'0 0.0
2017-Feb-11 16:33N 40°28' W 074°02'0 0.0
2017-Feb-11 15:33N 40°28' W 074°02'2 1.8
2017-Feb-11 14:33N 40°29' W 073°59'2 1.7
2017-Feb-11 13:31N 40°28' W 074°01'1 0.9
2017-Feb-11 12:29N 40°27' W 074°01'0 0.0
2017-Feb-11 11:33N 40°27' W 074°01'0 0.0
2017-Feb-11 10:33N 40°27' W 074°01'0 0.0
2017-Feb-11 09:31N 40°27' W 074°01'0 0.0
2017-Feb-11 08:31N 40°27' W 074°01'0 0.0
2017-Feb-11 07:33N 40°27' W 074°01'10 1.9
2017-Feb-11 02:30N 40°37' W 074°03'3 3.6
2017-Feb-11 01:33N 40°39' W 074°07'0 0.0
2017-Feb-11 00:27N 40°39' W 074°07'0 0.0
2017-Feb-10 23:32N 40°39' W 074°07'0 0.0
2017-Feb-10 22:33N 40°39' W 074°07'0 0.0
2017-Feb-10 21:33N 40°39' W 074°07'2 2.2
2017-Feb-10 20:33N 40°41' W 074°05'0 0.0
2017-Feb-10 19:33N 40°41' W 074°05'0 0.0
2017-Feb-10 18:33N 40°41' W 074°05'0 0.0
2017-Feb-10 17:33N 40°41' W 074°05'  

Dump ship's entire track history